Nottinghill, Missouri
Current Conditions -  °F | °C
As of 6:53 PM on Saturday 20 Dec 2014 (Local Time) from KBPK Reporting Station
Haze Haze  
Wind Chill: 40°   Ceiling: 3000
Heat Index: 40°   Visibility: 6mi
Dew Point: 38°   Wind: 3mph
Humidity: 93%   Direction: 100°E
Pressure: 30.2"   Gusts: NA
Location:  36.7078°N, 92.6528°W
Report Text: KBPK 210053Z AUTO 10003KT 6SM BR OVC030 04/03 A3020 RMK AO2 SLP233 T00440033
Loading
Personal Weather Stations






























Interactive Weather Map New forecast layout! Learn more

10-Day Weather Forecast

Advertisements
Track Severe Weather on mobile